createdAt,value
2023-07-09T00:00:24.877Z,22.23
2023-07-09T00:03:04.326Z,22.16
2023-07-09T00:05:43.694Z,22.11
2023-07-09T00:08:35.982Z,22.08
2023-07-09T00:11:15.321Z,22.05
2023-07-09T00:13:54.701Z,21.99
2023-07-09T00:16:34.624Z,21.94
2023-07-09T00:19:20.906Z,21.91
2023-07-09T00:22:00.574Z,21.88
2023-07-09T00:24:46.612Z,21.83
2023-07-09T00:27:38.147Z,21.80
2023-07-09T00:30:24.311Z,21.76
2023-07-09T00:33:03.707Z,21.64
2023-07-09T00:35:43.143Z,21.55
2023-07-09T00:38:27.078Z,21.48
2023-07-09T00:41:21.329Z,21.41
2023-07-09T00:44:01.010Z,21.34
2023-07-09T00:47:13.449Z,21.28
2023-07-09T00:49:53.803Z,21.24
2023-07-09T00:52:40.315Z,21.20
2023-07-09T00:55:25.776Z,21.18
2023-07-09T00:58:15.031Z,21.16
2023-07-09T01:01:01.164Z,21.13
2023-07-09T01:03:44.833Z,21.09
2023-07-09T01:06:32.394Z,21.04
2023-07-09T01:09:13.070Z,21.01
2023-07-09T01:11:52.739Z,21.00
2023-07-09T01:14:38.298Z,21.00
2023-07-09T01:17:18.753Z,21.00
2023-07-09T01:19:59.300Z,20.99
2023-07-09T01:22:44.010Z,20.96
2023-07-09T01:25:23.501Z,20.92
2023-07-09T01:28:03.066Z,20.89
2023-07-09T01:30:46.072Z,20.86
2023-07-09T01:33:25.451Z,20.80
2023-07-09T01:36:06.736Z,20.75
2023-07-09T01:38:52.156Z,20.71
2023-07-09T01:41:32.621Z,20.67
2023-07-09T01:44:14.051Z,20.64
2023-07-09T01:46:53.407Z,20.63
2023-07-09T01:49:34.580Z,20.60
2023-07-09T01:52:15.968Z,20.54
2023-07-09T01:55:00.559Z,20.49
2023-07-09T01:57:42.432Z,20.46
2023-07-09T02:00:24.416Z,20.44
2023-07-09T02:03:04.598Z,20.40
2023-07-09T02:05:44.599Z,20.35
2023-07-09T02:08:23.893Z,20.30
2023-07-09T02:11:08.327Z,20.28
2023-07-09T02:13:47.668Z,20.26
2023-07-09T02:16:27.049Z,20.25
2023-07-09T02:19:06.602Z,20.23
2023-07-09T02:21:45.963Z,20.22
2023-07-09T02:24:26.765Z,20.21
2023-07-09T02:27:13.877Z,20.20
2023-07-09T02:29:53.692Z,20.17
2023-07-09T02:32:35.338Z,20.14
2023-07-09T02:35:15.576Z,20.11
2023-07-09T02:37:54.978Z,20.08
2023-07-09T02:40:36.276Z,20.05
2023-07-09T02:43:20.688Z,20.04
2023-07-09T02:46:00.100Z,20.02
2023-07-09T02:48:39.683Z,20.01
2023-07-09T02:51:19.235Z,19.99
2023-07-09T02:53:58.566Z,19.97
2023-07-09T02:56:38.029Z,19.94
2023-07-09T02:59:22.594Z,19.91
2023-07-09T03:02:02.083Z,19.87
2023-07-09T03:04:41.563Z,19.84
2023-07-09T03:07:20.893Z,19.80
2023-07-09T03:10:00.567Z,19.77
2023-07-09T03:12:39.921Z,19.75
2023-07-09T03:15:24.593Z,19.71
2023-07-09T03:18:04.119Z,19.67
2023-07-09T03:20:43.538Z,19.64
2023-07-09T03:23:22.941Z,19.61
2023-07-09T03:26:03.738Z,19.59
2023-07-09T03:28:43.445Z,19.56
2023-07-09T03:31:28.193Z,19.54
2023-07-09T03:34:07.566Z,19.52
2023-07-09T03:36:46.903Z,19.51
2023-07-09T03:39:26.279Z,19.50
2023-07-09T03:42:05.588Z,19.49
2023-07-09T03:44:44.953Z,19.48
2023-07-09T03:47:29.531Z,19.47
2023-07-09T03:50:08.900Z,19.45
2023-07-09T03:52:48.271Z,19.44
2023-07-09T03:55:28.838Z,19.43
2023-07-09T03:58:08.652Z,19.43
2023-07-09T04:00:48.431Z,19.42
2023-07-09T04:03:32.976Z,19.42
2023-07-09T04:06:12.471Z,19.43
2023-07-09T04:08:51.829Z,19.43
2023-07-09T04:11:31.193Z,19.42
2023-07-09T04:14:10.715Z,19.42
2023-07-09T04:16:50.198Z,19.43
2023-07-09T04:19:34.614Z,19.44
2023-07-09T04:22:14.190Z,19.45
2023-07-09T04:24:54.478Z,19.47
2023-07-09T04:27:34.708Z,19.49
2023-07-09T04:30:18.814Z,19.49
2023-07-09T04:32:58.504Z,19.48
2023-07-09T04:35:42.956Z,19.48
2023-07-09T04:38:23.570Z,19.48
2023-07-09T04:41:02.879Z,19.49
2023-07-09T04:43:42.268Z,19.50
2023-07-09T04:46:21.744Z,19.54
2023-07-09T04:49:02.645Z,19.58
2023-07-09T04:51:47.061Z,19.59
2023-07-09T04:54:26.516Z,19.61
2023-07-09T04:57:05.828Z,19.64
2023-07-09T04:59:45.233Z,19.66
2023-07-09T05:02:24.642Z,19.69
2023-07-09T05:05:04.053Z,19.72
2023-07-09T05:07:49.390Z,19.77
2023-07-09T05:10:28.704Z,19.81
2023-07-09T05:13:08.075Z,19.85
2023-07-09T05:15:50.502Z,19.89
2023-07-09T05:18:29.975Z,19.93
2023-07-09T05:21:09.297Z,19.98
2023-07-09T05:23:53.827Z,20.03
2023-07-09T05:26:33.208Z,20.08
2023-07-09T05:29:13.034Z,20.12
2023-07-09T05:31:52.423Z,20.18
2023-07-09T05:34:31.854Z,20.24
2023-07-09T05:37:11.881Z,20.29
2023-07-09T05:39:56.523Z,20.34
2023-07-09T05:42:35.864Z,20.39
2023-07-09T05:45:16.480Z,20.45
2023-07-09T05:47:55.863Z,20.50
2023-07-09T05:50:36.683Z,20.56
2023-07-09T05:53:16.445Z,20.64
2023-07-09T05:56:01.802Z,20.70
2023-07-09T05:58:41.390Z,20.77
2023-07-09T06:01:22.590Z,20.84
2023-07-09T06:04:02.109Z,20.91
2023-07-09T06:06:41.620Z,20.98
2023-07-09T06:09:20.963Z,21.04
2023-07-09T06:12:05.412Z,21.13
2023-07-09T06:14:45.590Z,21.21
2023-07-09T06:17:24.918Z,21.31
2023-07-09T06:20:04.253Z,21.42
2023-07-09T06:22:43.651Z,21.51
2023-07-09T06:25:23.204Z,21.59
2023-07-09T06:28:07.715Z,21.67
2023-07-09T06:30:47.112Z,21.81
2023-07-09T06:33:27.786Z,21.94
2023-07-09T06:36:10.222Z,22.07
2023-07-09T06:38:49.582Z,22.18
2023-07-09T06:41:28.968Z,22.29
2023-07-09T06:44:13.570Z,22.39
2023-07-09T06:46:52.979Z,22.49
2023-07-09T06:49:33.725Z,22.60
2023-07-09T06:52:14.292Z,22.70
2023-07-09T06:54:53.617Z,22.81
2023-07-09T06:57:32.960Z,22.94
2023-07-09T07:00:18.991Z,23.08
2023-07-09T07:02:58.583Z,23.21
2023-07-09T07:05:38.103Z,23.33
2023-07-09T07:08:17.431Z,23.46
2023-07-09T07:11:04.123Z,23.59
2023-07-09T07:13:46.581Z,23.71
2023-07-09T07:16:31.755Z,23.83
2023-07-09T07:19:12.089Z,23.94
2023-07-09T07:21:51.495Z,24.07
2023-07-09T07:24:30.831Z,24.19
2023-07-09T07:27:10.455Z,24.29
2023-07-09T07:29:49.738Z,24.42
2023-07-09T07:32:34.243Z,24.56
2023-07-09T07:35:15.661Z,24.68
2023-07-09T07:37:55.418Z,24.81
2023-07-09T07:40:34.734Z,24.94
2023-07-09T07:43:14.064Z,25.06
2023-07-09T07:45:53.462Z,25.15
2023-07-09T07:48:37.908Z,25.24
2023-07-09T07:51:17.500Z,25.35
2023-07-09T07:53:56.933Z,25.45
2023-07-09T07:56:36.325Z,25.57
2023-07-09T07:59:16.663Z,25.70
2023-07-09T08:01:56.023Z,25.82
2023-07-09T08:04:40.818Z,25.92
2023-07-09T08:07:20.682Z,26.03
2023-07-09T08:09:59.982Z,26.15
2023-07-09T08:12:39.322Z,26.26
2023-07-09T08:15:19.960Z,26.37
2023-07-09T08:17:59.428Z,26.53
2023-07-09T08:20:43.955Z,26.78
2023-07-09T08:23:23.317Z,27.07
2023-07-09T08:26:02.806Z,27.37
2023-07-09T08:28:43.469Z,27.61
2023-07-09T08:31:22.839Z,27.85
2023-07-09T08:34:02.199Z,28.07
2023-07-09T08:36:46.999Z,28.26
2023-07-09T08:39:26.321Z,28.43
2023-07-09T08:42:11.097Z,28.59
2023-07-09T08:45:26.389Z,28.75
2023-07-09T08:48:13.138Z,28.96
2023-07-09T08:50:59.542Z,29.13
2023-07-09T08:53:52.980Z,29.33
2023-07-09T08:56:34.252Z,29.53
2023-07-09T08:59:17.594Z,29.71
2023-07-09T09:02:02.014Z,29.87
2023-07-09T09:04:47.468Z,30.04
2023-07-09T09:07:39.910Z,30.21
2023-07-09T09:10:31.478Z,30.41
2023-07-09T09:13:17.452Z,30.57
2023-07-09T09:15:57.103Z,30.73
2023-07-09T09:18:42.298Z,30.89
2023-07-09T09:21:29.761Z,31.07
2023-07-09T09:24:23.215Z,31.30
2023-07-09T09:27:07.860Z,31.55
2023-07-09T09:29:47.282Z,31.70
2023-07-09T09:32:34.490Z,31.84
2023-07-09T09:35:22.308Z,31.99
2023-07-09T09:38:04.169Z,32.19
2023-07-09T09:40:44.251Z,32.37
2023-07-09T09:43:29.399Z,32.57
2023-07-09T09:46:14.291Z,32.74
2023-07-09T09:48:55.533Z,32.93
2023-07-09T09:51:36.213Z,33.08
2023-07-09T09:54:25.806Z,33.20
2023-07-09T09:57:05.458Z,33.34
2023-07-09T09:59:49.845Z,33.50
2023-07-09T10:02:31.690Z,33.63
2023-07-09T10:05:16.631Z,33.75
2023-07-09T10:08:08.531Z,33.89
2023-07-09T10:10:53.083Z,34.05
2023-07-09T10:13:40.475Z,34.25
2023-07-09T10:16:38.323Z,34.42
2023-07-09T10:19:27.752Z,34.57
2023-07-09T10:22:12.997Z,34.73
2023-07-09T10:25:05.670Z,34.89
2023-07-09T10:27:57.449Z,35.10
2023-07-09T10:30:52.649Z,35.27
2023-07-09T10:33:50.147Z,35.42
2023-07-09T10:36:55.071Z,35.58
2023-07-09T10:39:41.066Z,35.75
2023-07-09T10:42:29.504Z,35.82
2023-07-09T10:45:17.220Z,35.96
2023-07-09T10:48:04.182Z,36.07
2023-07-09T10:50:51.641Z,36.20
2023-07-09T10:53:40.448Z,36.35
2023-07-09T10:56:25.161Z,36.49
2023-07-09T10:59:12.477Z,36.61
2023-07-09T11:01:58.974Z,36.75
2023-07-09T11:04:44.928Z,36.90
2023-07-09T11:07:36.265Z,36.99
2023-07-09T11:10:30.278Z,37.07
2023-07-09T11:13:17.655Z,37.19
2023-07-09T11:16:04.059Z,37.33
2023-07-09T11:18:44.478Z,37.47
2023-07-09T11:21:26.246Z,37.57
2023-07-09T11:24:10.690Z,37.60
2023-07-09T11:26:57.939Z,37.66
2023-07-09T11:29:37.289Z,37.61
2023-07-09T11:32:17.910Z,37.60
2023-07-09T11:34:57.686Z,37.69
2023-07-09T11:37:37.028Z,37.77
2023-07-09T11:40:25.601Z,37.90
2023-07-09T11:43:06.619Z,38.15
2023-07-09T11:45:47.156Z,38.29
2023-07-09T11:48:33.894Z,38.43
2023-07-09T11:51:21.791Z,38.57
2023-07-09T11:54:02.416Z,38.68
2023-07-09T11:56:46.830Z,38.77
2023-07-09T11:59:26.281Z,38.86
2023-07-09T12:02:05.776Z,38.95
2023-07-09T12:04:45.703Z,39.02
2023-07-09T12:07:27.938Z,39.15
2023-07-09T12:10:10.840Z,39.27
2023-07-09T12:12:56.494Z,39.18
2023-07-09T12:15:38.357Z,39.10
2023-07-09T12:18:21.286Z,39.12
2023-07-09T12:21:02.018Z,39.20
2023-07-09T12:23:41.798Z,39.28
2023-07-09T12:26:24.128Z,39.39
2023-07-09T12:29:08.554Z,39.53
2023-07-09T12:31:48.515Z,39.66
2023-07-09T12:34:27.867Z,39.75
2023-07-09T12:37:09.127Z,39.77
2023-07-09T12:39:48.499Z,39.62
2023-07-09T12:42:32.656Z,39.55
2023-07-09T12:45:24.030Z,39.47
2023-07-09T12:48:03.994Z,39.49
2023-07-09T12:50:44.498Z,39.60
2023-07-09T12:53:28.882Z,39.63
2023-07-09T12:56:10.094Z,39.70
2023-07-09T12:58:49.461Z,39.78
2023-07-09T13:01:34.018Z,39.83
2023-07-09T13:04:13.382Z,39.90
2023-07-09T13:06:59.803Z,40.00
2023-07-09T13:09:39.928Z,40.13
2023-07-09T13:12:19.605Z,40.24
2023-07-09T13:15:02.435Z,40.40
2023-07-09T13:17:51.103Z,40.61
2023-07-09T13:20:30.596Z,40.71
2023-07-09T13:23:12.626Z,40.88
2023-07-09T13:25:52.846Z,41.05
2023-07-09T13:28:34.672Z,41.20
2023-07-09T13:31:22.097Z,41.38
2023-07-09T13:34:07.534Z,41.55
2023-07-09T13:36:46.875Z,41.61
2023-07-09T13:39:28.833Z,41.56
2023-07-09T13:42:09.832Z,41.39
2023-07-09T13:44:52.207Z,41.24
2023-07-09T13:47:31.656Z,41.21
2023-07-09T13:50:17.068Z,41.19
2023-07-09T13:52:56.410Z,41.33
2023-07-09T13:55:35.709Z,41.45
2023-07-09T13:58:17.446Z,41.52
2023-07-09T14:00:59.077Z,41.59
2023-07-09T14:03:41.083Z,41.80
2023-07-09T14:06:26.596Z,41.93
2023-07-09T14:09:05.886Z,41.99
2023-07-09T14:11:51.969Z,41.93
2023-07-09T14:14:41.384Z,41.95
2023-07-09T14:20:06.460Z,42.09
2023-07-09T14:22:52.198Z,42.12
2023-07-09T14:25:34.374Z,42.27
2023-07-09T14:28:19.795Z,42.37
2023-07-09T14:30:59.272Z,42.50
2023-07-09T14:33:38.625Z,42.70
2023-07-09T14:36:18.734Z,42.86
2023-07-09T14:39:06.159Z,42.80
2023-07-09T14:41:46.276Z,42.88
2023-07-09T14:44:32.472Z,42.88
2023-07-09T14:47:22.804Z,42.94
2023-07-09T14:50:02.954Z,42.91
2023-07-09T14:52:42.239Z,42.86
2023-07-09T14:55:31.625Z,42.90
2023-07-09T14:58:10.957Z,43.05
2023-07-09T15:00:51.364Z,43.20
2023-07-09T15:03:32.571Z,43.34
2023-07-09T15:06:12.143Z,43.22
2023-07-09T15:08:51.537Z,42.95
2023-07-09T15:11:38.181Z,42.93
2023-07-09T15:14:19.359Z,42.89
2023-07-09T15:17:01.074Z,42.84
2023-07-09T15:19:40.825Z,42.81
2023-07-09T15:22:39.199Z,42.83
2023-07-09T15:25:22.815Z,42.90
2023-07-09T15:28:07.294Z,42.91
2023-07-09T15:30:47.052Z,42.91
2023-07-09T15:33:28.576Z,42.87
2023-07-09T15:36:07.991Z,42.62
2023-07-09T15:38:48.026Z,42.35
2023-07-09T15:41:27.383Z,42.20
2023-07-09T15:44:12.287Z,42.02
2023-07-09T15:46:59.104Z,41.83
2023-07-09T15:49:38.471Z,41.67
2023-07-09T15:52:18.717Z,41.56
2023-07-09T15:54:58.061Z,41.51
2023-07-09T15:57:42.645Z,41.45
2023-07-09T16:00:32.811Z,41.38
2023-07-09T16:03:22.035Z,41.34
2023-07-09T16:06:02.700Z,41.30
2023-07-09T16:08:42.069Z,41.19
2023-07-09T16:11:23.764Z,41.13
2023-07-09T16:14:03.790Z,41.06
2023-07-09T16:16:48.825Z,40.80
2023-07-09T16:19:31.084Z,40.57
2023-07-09T16:22:14.877Z,40.48
2023-07-09T16:24:54.222Z,40.33
2023-07-09T16:27:33.577Z,40.13
2023-07-09T16:30:21.385Z,40.00
2023-07-09T16:33:06.700Z,39.94
2023-07-09T16:35:46.343Z,39.89
2023-07-09T16:38:26.182Z,39.86
2023-07-09T16:41:05.488Z,39.83
2023-07-09T16:43:44.874Z,39.81
2023-07-09T16:46:28.815Z,39.74
2023-07-09T16:49:33.705Z,39.65
2023-07-09T16:52:21.755Z,39.53
2023-07-09T16:55:02.002Z,39.50
2023-07-09T16:57:42.134Z,39.47
2023-07-09T17:00:31.001Z,39.40
2023-07-09T17:03:13.740Z,39.35
2023-07-09T17:05:58.626Z,39.29
2023-07-09T17:08:37.934Z,39.18
2023-07-09T17:11:19.805Z,39.03
2023-07-09T17:13:59.243Z,38.92
2023-07-09T17:16:38.691Z,38.85
2023-07-09T17:19:19.601Z,38.80
2023-07-09T17:22:06.167Z,38.76
2023-07-09T17:24:45.480Z,38.71
2023-07-09T17:27:24.852Z,38.67
2023-07-09T17:30:04.354Z,38.59
2023-07-09T17:32:43.785Z,38.48
2023-07-09T17:35:24.173Z,38.36
2023-07-09T17:38:09.677Z,38.11
2023-07-09T17:40:49.309Z,37.89
2023-07-09T17:43:30.429Z,37.73
2023-07-09T17:46:10.175Z,37.51
2023-07-09T17:48:50.954Z,37.30
2023-07-09T17:51:30.318Z,37.13
2023-07-09T17:54:22.439Z,36.98
2023-07-09T17:57:04.674Z,36.82
2023-07-09T17:59:45.818Z,36.64
2023-07-09T18:02:31.984Z,36.48
2023-07-09T18:05:30.625Z,36.33
2023-07-09T18:08:13.024Z,36.19
2023-07-09T18:10:59.019Z,36.09
2023-07-09T18:13:39.293Z,35.96
2023-07-09T18:16:18.990Z,35.79
2023-07-09T18:19:04.653Z,35.62
2023-07-09T18:21:44.116Z,35.47
2023-07-09T18:24:24.919Z,35.32
2023-07-09T18:27:09.400Z,35.17
2023-07-09T18:29:49.217Z,35.04
2023-07-09T18:32:31.629Z,34.94
2023-07-09T18:35:28.597Z,34.82
2023-07-09T18:38:10.864Z,34.67
2023-07-09T18:40:52.673Z,34.53
2023-07-09T18:43:37.248Z,34.42
2023-07-09T18:46:17.708Z,34.29
2023-07-09T18:48:57.129Z,34.16
2023-07-09T18:51:38.061Z,34.03
2023-07-09T18:54:19.937Z,33.88
2023-07-09T18:56:59.260Z,33.75
2023-07-09T18:59:43.699Z,33.64
2023-07-09T19:02:26.156Z,33.54
2023-07-09T19:05:06.011Z,33.46
2023-07-09T19:07:45.364Z,33.33
2023-07-09T19:10:30.146Z,33.24
2023-07-09T19:13:17.406Z,33.08
2023-07-09T19:16:04.169Z,32.90
2023-07-09T19:18:46.786Z,32.76
2023-07-09T19:21:26.822Z,32.63
2023-07-09T19:24:06.677Z,32.48
2023-07-09T19:26:46.031Z,32.37
2023-07-09T19:29:27.063Z,32.30
2023-07-09T19:32:21.351Z,32.21
2023-07-09T19:35:04.325Z,32.10
2023-07-09T19:37:45.894Z,32.00
2023-07-09T19:40:27.815Z,31.89
2023-07-09T19:43:08.724Z,31.77
2023-07-09T19:45:52.573Z,31.65
2023-07-09T19:48:37.868Z,31.56
2023-07-09T19:51:17.881Z,31.48
2023-07-09T19:53:57.243Z,31.42
2023-07-09T19:56:36.845Z,31.32
2023-07-09T19:59:16.281Z,31.22
2023-07-09T20:01:58.824Z,31.12
2023-07-09T20:04:43.214Z,31.03
2023-07-09T20:07:22.878Z,30.94
2023-07-09T20:10:02.251Z,30.83
2023-07-09T20:12:42.015Z,30.76
2023-07-09T20:15:28.337Z,30.64
2023-07-09T20:18:09.505Z,30.52
2023-07-09T20:20:57.886Z,30.41
2023-07-09T20:23:37.772Z,30.32
2023-07-09T20:26:18.563Z,30.26
2023-07-09T20:28:57.909Z,30.19
2023-07-09T20:31:37.459Z,30.14
2023-07-09T20:34:24.618Z,30.09
2023-07-09T20:37:09.155Z,30.06
2023-07-09T20:39:48.564Z,30.01
2023-07-09T20:42:27.884Z,29.91
2023-07-09T20:45:07.469Z,29.84
2023-07-09T20:47:46.845Z,29.79
2023-07-09T20:50:30.209Z,29.73
2023-07-09T20:53:14.655Z,29.69
2023-07-09T20:55:55.741Z,29.62
2023-07-09T20:58:36.736Z,29.56
2023-07-09T21:01:17.559Z,29.49
2023-07-09T21:03:56.993Z,29.42
2023-07-09T21:06:37.065Z,29.37
2023-07-09T21:09:34.760Z,29.33
2023-07-09T21:12:18.199Z,29.29
2023-07-09T21:14:57.848Z,29.26
2023-07-09T21:17:37.389Z,29.19
2023-07-09T21:20:26.348Z,29.13
2023-07-09T21:23:05.826Z,29.06
2023-07-09T21:25:50.531Z,29.01
2023-07-09T21:28:29.867Z,28.97
2023-07-09T21:31:09.487Z,28.93
2023-07-09T21:33:48.819Z,28.88
2023-07-09T21:36:28.176Z,28.81
2023-07-09T21:39:08.666Z,28.75
2023-07-09T21:41:55.971Z,28.70
2023-07-09T21:44:35.355Z,28.63
2023-07-09T21:47:20.218Z,28.56
2023-07-09T21:49:59.660Z,28.47
2023-07-09T21:52:40.362Z,28.38
2023-07-09T21:55:23.444Z,28.31
2023-07-09T21:58:07.834Z,28.24
2023-07-09T22:00:56.277Z,28.17
2023-07-09T22:03:36.396Z,28.08
2023-07-09T22:06:17.459Z,28.00
2023-07-09T22:08:56.823Z,27.91
2023-07-09T22:11:38.365Z,27.83
2023-07-09T22:14:25.948Z,27.79
2023-07-09T22:17:05.265Z,27.72
2023-07-09T22:19:54.626Z,27.64
2023-07-09T22:22:36.319Z,27.56
2023-07-09T22:25:24.660Z,27.48
2023-07-09T22:28:05.125Z,27.43
2023-07-09T22:30:49.741Z,27.36
2023-07-09T22:33:29.163Z,27.29
2023-07-09T22:36:08.548Z,27.24
2023-07-09T22:38:47.930Z,27.17
2023-07-09T22:41:27.388Z,27.06
2023-07-09T22:44:06.705Z,26.95
2023-07-09T22:46:52.458Z,26.88
2023-07-09T22:49:32.582Z,26.78
2023-07-09T22:52:12.899Z,26.70
2023-07-09T22:54:52.251Z,26.66
2023-07-09T22:57:31.714Z,26.61
2023-07-09T23:00:12.843Z,26.58
2023-07-09T23:02:58.439Z,26.51
2023-07-09T23:05:37.867Z,26.45
2023-07-09T23:08:36.859Z,26.41
2023-07-09T23:11:21.163Z,26.38
2023-07-09T23:14:01.643Z,26.34
2023-07-09T23:16:41.110Z,26.29
2023-07-09T23:19:31.309Z,26.20
2023-07-09T23:22:10.812Z,26.12
2023-07-09T23:24:50.157Z,26.05
2023-07-09T23:27:30.476Z,25.99
2023-07-09T23:30:10.232Z,25.94
2023-07-09T23:32:49.833Z,25.88
2023-07-09T23:35:36.606Z,25.85
2023-07-09T23:38:15.916Z,25.82
2023-07-09T23:40:55.309Z,25.79
2023-07-09T23:43:39.286Z,25.77
2023-07-09T23:46:19.985Z,25.75
2023-07-09T23:49:08.495Z,25.69
2023-07-09T23:51:54.991Z,25.57
2023-07-09T23:54:34.332Z,25.47
2023-07-09T23:57:14.196Z,25.41
2023-07-09T23:59:53.649Z,25.36
